Time;durP1;ratioP1;P1;durP2;ratioP2;P2;SDS_P1;SDS_P2;PMS_P1;PMS_P2;Temp;Humidity;BMP_temperature;BMP_pressure;BME280_temperature;BME280_humidity;BME280_pressure;Samples;Min_cycle;Max_cycle;Signal;HPM_P1;HPM_P2
2022/07/16 00:04:02;;;;;;;2.70;2.50;;;25.20;99.90;;;;;;5068336;28;20221;-76
2022/07/16 00:06:30;;;;;;;2.70;2.50;;;25.20;99.90;;;;;;5076644;28;20190;-76
2022/07/16 00:08:57;;;;;;;2.80;2.60;;;25.20;99.90;;;;;;5082011;28;20214;-77
2022/07/16 00:11:25;;;;;;;2.50;2.30;;;25.20;99.90;;;;;;5079454;28;20214;-75
2022/07/16 00:13:52;;;;;;;2.35;2.17;;;25.20;99.90;;;;;;5079023;28;20214;-78
2022/07/16 00:16:20;;;;;;;2.90;2.70;;;25.20;99.90;;;;;;5079120;28;20254;-76
2022/07/16 00:21:31;;;;;;;2.22;2.13;;;25.10;99.90;;;;;;5074570;28;20201;-76
2022/07/16 00:23:58;;;;;;;2.45;2.28;;;25.10;99.90;;;;;;5083766;28;20221;-75
2022/07/16 00:26:27;;;;;;;2.60;2.40;;;25.10;99.90;;;;;;5076707;28;20248;-75
2022/07/16 00:28:54;;;;;;;3.03;2.72;;;25.00;99.90;;;;;;5078185;28;20217;-77
2022/07/16 00:31:21;;;;;;;2.20;2.10;;;25.00;99.90;;;;;;5080366;28;20228;-77
2022/07/16 00:33:48;;;;;;;2.50;2.30;;;24.90;99.90;;;;;;5079088;28;20217;-74
2022/07/16 00:36:15;;;;;;;2.55;2.35;;;24.90;99.90;;;;;;5082465;28;20190;-77
2022/07/16 00:38:42;;;;;;;2.97;2.40;;;24.90;99.90;;;;;;5080961;28;20266;-75
2022/07/16 00:41:16;;;;;;;2.90;2.70;;;24.90;99.90;;;;;;5078377;28;20197;-76
2022/07/16 00:43:49;;;;;;;3.05;2.70;;;24.90;99.90;;;;;;5075996;28;20698;-76
2022/07/16 00:46:17;;;;;;;3.03;2.70;;;25.00;99.90;;;;;;5077968;28;20213;-76
2022/07/16 00:48:45;;;;;;;2.55;2.38;;;24.90;99.90;;;;;;5096954;28;20212;-75
2022/07/16 00:51:14;;;;;;;2.78;2.58;;;24.90;99.90;;;;;;5102941;28;20220;-76
2022/07/16 00:53:42;;;;;;;3.60;2.80;;;24.90;99.90;;;;;;5096781;28;20594;-77
2022/07/16 00:56:10;;;;;;;2.97;2.70;;;25.10;99.90;;;;;;5097749;28;20206;-76
2022/07/16 00:58:38;;;;;;;2.63;2.42;;;25.10;99.90;;;;;;5103491;28;20303;-76
2022/07/16 01:01:07;;;;;;;2.90;2.70;;;25.00;99.90;;;;;;5103270;28;20298;-77
2022/07/16 01:03:38;;;;;;;3.38;3.08;;;24.80;99.90;;;;;;5108097;28;20224;-77
2022/07/16 01:06:06;;;;;;;3.42;2.50;;;24.50;99.90;;;;;;5108874;28;20694;-77
2022/07/16 01:08:34;;;;;;;3.17;2.97;;;24.40;99.90;;;;;;5103207;28;20219;-78
2022/07/16 01:11:02;;;;;;;3.42;3.13;;;24.40;99.90;;;;;;5104870;28;20218;-78
2022/07/16 01:13:30;;;;;;;2.88;2.67;;;24.30;99.90;;;;;;5110718;28;20216;-78
2022/07/16 01:15:57;;;;;;;3.30;3.10;;;24.30;99.90;;;;;;5096030;28;20342;-76
2022/07/16 01:18:25;;;;;;;3.15;2.95;;;24.20;99.90;;;;;;5103262;28;20225;-77
2022/07/16 01:20:52;;;;;;;3.55;3.25;;;24.20;99.90;;;;;;5102710;28;20220;-77
2022/07/16 01:23:21;;;;;;;2.85;2.63;;;24.20;99.90;;;;;;5103841;27;20221;-77
2022/07/16 01:25:49;;;;;;;2.70;2.50;;;24.30;99.90;;;;;;5100610;28;20196;-77
2022/07/16 01:28:17;;;;;;;3.05;2.85;;;24.10;99.90;;;;;;5099074;28;20891;-78
2022/07/16 01:30:44;;;;;;;2.35;2.25;;;24.00;99.90;;;;;;5104820;28;20287;-76
2022/07/16 01:33:28;;;;;;;3.30;3.10;;;24.20;99.90;;;;;;5107930;27;20640;-76
2022/07/16 01:35:57;;;;;;;3.20;2.90;;;24.30;99.90;;;;;;5106066;27;20193;-77
2022/07/16 01:38:26;;;;;;;3.75;3.45;;;24.30;99.90;;;;;;5111437;27;20215;-77
2022/07/16 01:40:54;;;;;;;3.70;3.40;;;24.20;99.90;;;;;;5105437;27;20212;-78
2022/07/16 01:43:22;;;;;;;4.03;3.65;;;24.30;99.90;;;;;;5099866;27;20662;-77
2022/07/16 01:45:50;;;;;;;3.20;3.00;;;24.50;99.90;;;;;;5112244;27;20198;-77
2022/07/16 01:48:17;;;;;;;3.67;3.10;;;24.40;99.90;;;;;;5102570;27;20225;-74
2022/07/16 01:50:45;;;;;;;3.30;3.10;;;24.40;99.90;;;;;;5110311;27;20213;-75
2022/07/16 01:53:13;;;;;;;3.00;2.80;;;24.30;99.90;;;;;;5102575;27;20223;-76
2022/07/16 01:55:42;;;;;;;3.22;3.03;;;24.20;99.90;;;;;;5109833;27;20204;-76
2022/07/16 01:58:11;;;;;;;2.80;2.60;;;24.10;99.90;;;;;;5101380;27;20213;-75
2022/07/16 02:00:40;;;;;;;2.80;2.60;;;24.10;99.90;;;;;;5108457;27;20209;-76
2022/07/16 02:03:08;;;;;;;2.83;2.63;;;24.20;99.90;;;;;;5109187;27;20224;-75
2022/07/16 02:05:36;;;;;;;3.00;2.80;;;24.40;99.90;;;;;;5115856;27;20217;-75
2022/07/16 02:08:04;;;;;;;2.83;2.63;;;24.50;99.90;;;;;;5105885;27;20270;-76
2022/07/16 02:10:31;;;;;;;3.00;2.78;;;24.60;99.90;;;;;;5104244;27;21217;-75
2022/07/16 02:12:59;;;;;;;3.30;3.00;;;24.50;99.90;;;;;;5103686;27;20212;-75
2022/07/16 02:15:27;;;;;;;2.85;2.65;;;24.50;99.90;;;;;;5099633;27;20247;-76
2022/07/16 02:17:54;;;;;;;3.45;2.70;;;24.40;99.90;;;;;;5099093;27;20244;-77
2022/07/16 02:20:21;;;;;;;3.05;2.85;;;24.50;99.90;;;;;;5107907;27;20213;-75
2022/07/16 02:22:48;;;;;;;2.92;2.72;;;24.50;99.90;;;;;;5100856;27;20266;-77
2022/07/16 02:25:15;;;;;;;2.90;2.70;;;24.60;99.90;;;;;;5103409;27;20202;-76
2022/07/16 02:30:25;;;;;;;3.22;2.92;;;24.70;99.90;;;;;;5103612;27;20300;-75
2022/07/16 02:32:52;;;;;;;3.25;2.70;;;24.70;99.90;;;;;;5106324;27;20217;-75
2022/07/16 02:35:20;;;;;;;2.90;2.70;;;24.60;99.90;;;;;;5114060;27;20196;-75
2022/07/16 02:37:47;;;;;;;2.90;2.70;;;24.60;99.90;;;;;;5107560;27;20225;-76
2022/07/16 02:40:14;;;;;;;3.38;2.75;;;24.50;99.90;;;;;;5106151;27;20212;-76
2022/07/16 02:42:42;;;;;;;2.72;2.53;;;24.60;99.90;;;;;;5109486;27;20262;-75
2022/07/16 02:45:10;;;;;;;3.15;2.95;;;24.70;99.90;;;;;;5108750;27;20270;-76
2022/07/16 02:47:39;;;;;;;2.83;2.63;;;24.70;99.90;;;;;;5105380;27;20315;-76
2022/07/16 02:50:08;;;;;;;2.67;2.47;;;24.60;99.90;;;;;;5102393;27;20229;-75
2022/07/16 02:55:11;;;;;;;3.28;2.90;;;24.50;99.90;;;;;;5073258;28;20209;-70
2022/07/16 02:57:38;;;;;;;2.80;2.60;;;24.40;99.90;;;;;;5076812;28;20213;-70
2022/07/16 03:00:06;;;;;;;3.00;2.70;;;24.40;99.90;;;;;;5082514;28;20679;-69
2022/07/16 03:02:33;;;;;;;2.95;2.75;;;24.40;99.90;;;;;;5078976;28;20270;-70
2022/07/16 03:05:03;;;;;;;2.63;2.42;;;24.40;99.90;;;;;;5070091;28;20222;-70
2022/07/16 03:07:30;;;;;;;3.00;2.80;;;24.60;99.90;;;;;;5065372;28;20276;-71
2022/07/16 03:09:57;;;;;;;2.95;2.75;;;24.60;99.90;;;;;;5063314;28;20217;-68
2022/07/16 03:12:25;;;;;;;2.83;2.63;;;24.70;99.90;;;;;;5061320;28;20596;-70
2022/07/16 03:14:52;;;;;;;2.85;2.65;;;24.70;99.90;;;;;;5062364;28;20301;-70
2022/07/16 03:17:19;;;;;;;2.95;2.75;;;24.70;99.90;;;;;;5060685;28;20218;-70
2022/07/16 03:19:46;;;;;;;2.80;2.60;;;24.70;99.90;;;;;;5061799;28;20214;-70
2022/07/16 03:22:16;;;;;;;2.63;2.50;;;24.80;99.90;;;;;;5057298;28;20218;-70
2022/07/16 03:24:43;;;;;;;2.80;2.60;;;24.70;99.90;;;;;;5064595;28;20264;-70
2022/07/16 03:27:10;;;;;;;3.08;2.88;;;24.80;99.90;;;;;;5063953;28;20226;-71
2022/07/16 03:29:37;;;;;;;2.92;2.72;;;24.70;99.90;;;;;;5059254;28;20587;-70
2022/07/16 03:32:04;;;;;;;2.90;2.70;;;24.70;99.90;;;;;;5063306;28;20719;-70
2022/07/16 03:34:32;;;;;;;3.20;2.90;;;24.70;99.90;;;;;;5065956;28;20211;-69
2022/07/16 03:37:00;;;;;;;2.90;2.70;;;24.70;99.90;;;;;;5072837;28;20202;-69
2022/07/16 03:39:28;;;;;;;3.20;3.00;;;24.70;99.90;;;;;;5059994;28;20222;-71
2022/07/16 03:41:55;;;;;;;4.03;2.90;;;24.70;99.90;;;;;;5060415;28;20194;-70
2022/07/16 03:44:22;;;;;;;3.00;2.80;;;24.70;99.90;;;;;;5064200;28;20222;-69
2022/07/16 03:46:49;;;;;;;3.15;2.95;;;24.60;99.90;;;;;;5058827;28;20190;-71
2022/07/16 03:49:16;;;;;;;3.60;3.30;;;24.60;99.90;;;;;;5064546;28;20679;-70
2022/07/16 03:51:43;;;;;;;2.90;2.70;;;24.70;99.90;;;;;;5060311;28;20218;-70
2022/07/16 03:54:11;;;;;;;3.15;2.95;;;24.70;99.90;;;;;;5058367;28;20982;-70
2022/07/16 03:56:39;;;;;;;3.15;2.95;;;24.60;99.90;;;;;;5059431;28;20221;-71
2022/07/16 03:59:06;;;;;;;2.80;2.60;;;24.60;99.90;;;;;;5058681;28;20222;-70
2022/07/16 04:01:33;;;;;;;3.15;2.92;;;24.60;99.90;;;;;;5064537;28;20202;-70
2022/07/16 04:04:00;;;;;;;3.30;3.00;;;24.60;99.90;;;;;;5061826;28;20230;-70
2022/07/16 04:06:28;;;;;;;3.20;3.00;;;24.50;99.90;;;;;;5064511;28;20272;-70
2022/07/16 04:08:55;;;;;;;3.20;3.00;;;24.60;99.90;;;;;;5062786;28;20652;-70
2022/07/16 04:11:22;;;;;;;3.13;2.92;;;24.60;99.90;;;;;;5062293;28;20222;-71
2022/07/16 04:13:50;;;;;;;3.03;2.83;;;24.60;99.90;;;;;;5064490;28;20225;-71
2022/07/16 04:16:17;;;;;;;3.75;3.08;;;24.60;99.90;;;;;;5061031;28;20195;-68
2022/07/16 04:18:44;;;;;;;3.22;2.92;;;24.60;99.90;;;;;;5066471;28;20222;-68
2022/07/16 04:21:11;;;;;;;3.05;2.83;;;24.70;99.90;;;;;;5062111;28;20217;-69
2022/07/16 04:23:38;;;;;;;3.00;2.80;;;24.70;99.90;;;;;;5058905;28;20227;-73
2022/07/16 04:26:05;;;;;;;3.00;2.80;;;24.70;99.90;;;;;;5064403;28;20198;-69
2022/07/16 04:28:33;;;;;;;2.92;2.72;;;24.70;99.90;;;;;;5062619;28;20242;-70
2022/07/16 04:31:01;;;;;;;3.30;3.00;;;24.70;99.90;;;;;;5061116;28;20238;-71
2022/07/16 04:33:28;;;;;;;3.53;3.00;;;24.70;99.90;;;;;;5060785;28;20226;-70
2022/07/16 04:35:55;;;;;;;3.53;2.92;;;24.70;99.90;;;;;;5067028;28;20205;-70
2022/07/16 04:38:22;;;;;;;3.45;2.78;;;24.70;99.90;;;;;;5059123;28;20266;-70
2022/07/16 04:40:49;;;;;;;3.13;2.92;;;24.70;99.90;;;;;;5059963;28;20205;-70
2022/07/16 04:43:16;;;;;;;3.60;3.30;;;24.70;99.90;;;;;;5061192;28;20224;-70
2022/07/16 04:45:43;;;;;;;3.08;2.88;;;24.70;99.90;;;;;;5064557;28;20206;-74
2022/07/16 04:48:12;;;;;;;3.50;3.20;;;24.70;99.90;;;;;;5063097;28;21326;-74
2022/07/16 04:50:39;;;;;;;2.90;2.70;;;24.50;99.90;;;;;;5057902;28;20199;-74
2022/07/16 04:53:06;;;;;;;2.80;2.60;;;24.30;99.90;;;;;;5066711;28;20218;-75
2022/07/16 04:55:33;;;;;;;3.00;2.78;;;24.10;99.90;;;;;;5062523;28;20312;-75
2022/07/16 04:58:00;;;;;;;3.47;3.17;;;24.00;99.90;;;;;;5065172;28;20229;-74
2022/07/16 05:00:28;;;;;;;3.65;2.90;;;24.00;99.90;;;;;;5056048;28;20206;-75
2022/07/16 05:02:58;;;;;;;3.22;2.90;;;23.90;99.90;;;;;;5060593;28;20218;-74
2022/07/16 05:05:28;;;;;;;3.05;2.85;;;23.80;99.90;;;;;;5060377;28;20572;-74
2022/07/16 05:07:55;;;;;;;3.30;3.00;;;23.70;99.90;;;;;;5060794;28;20588;-74
2022/07/16 05:10:22;;;;;;;2.85;2.65;;;23.80;99.90;;;;;;5063411;28;20194;-74
2022/07/16 05:12:49;;;;;;;2.90;2.70;;;23.80;99.90;;;;;;5065266;28;20214;-74
2022/07/16 05:15:16;;;;;;;3.17;2.97;;;23.80;99.90;;;;;;5063118;28;20205;-75
2022/07/16 05:17:43;;;;;;;3.00;2.80;;;23.80;99.90;;;;;;5059705;28;20222;-72
2022/07/16 05:20:11;;;;;;;2.83;2.63;;;23.90;99.90;;;;;;5063418;28;20234;-74
2022/07/16 05:22:39;;;;;;;3.25;3.05;;;23.90;99.90;;;;;;5066579;28;20345;-74
2022/07/16 05:25:07;;;;;;;3.25;2.95;;;24.00;99.90;;;;;;5066035;28;20234;-76
2022/07/16 05:27:35;;;;;;;3.20;2.90;;;24.00;99.90;;;;;;5056824;28;20218;-74
2022/07/16 05:30:02;;;;;;;3.10;2.90;;;24.00;99.90;;;;;;5050264;28;20570;-73
2022/07/16 05:32:29;;;;;;;3.38;3.10;;;24.10;99.90;;;;;;5049625;28;20222;-77
2022/07/16 05:34:56;;;;;;;2.90;2.70;;;24.30;99.90;;;;;;5061590;28;20229;-76
2022/07/16 05:37:23;;;;;;;3.42;3.22;;;24.40;99.90;;;;;;5066377;28;20219;-77
2022/07/16 05:39:52;;;;;;;3.40;3.10;;;24.50;99.90;;;;;;5069798;28;20812;-77
2022/07/16 05:42:19;;;;;;;3.42;3.13;;;24.60;99.90;;;;;;5063529;28;20221;-77
2022/07/16 05:44:46;;;;;;;3.30;3.10;;;24.70;99.90;;;;;;5062554;28;20218;-77
2022/07/16 05:47:13;;;;;;;3.58;3.28;;;24.80;99.90;;;;;;5064965;28;20214;-76
2022/07/16 05:49:40;;;;;;;4.03;3.67;;;24.90;99.90;;;;;;5065518;28;20209;-76
2022/07/16 05:52:07;;;;;;;3.95;3.65;;;25.10;99.90;;;;;;5059905;28;20226;-77
2022/07/16 05:54:34;;;;;;;4.85;3.38;;;25.10;99.90;;;;;;5060621;28;20224;-74
2022/07/16 05:57:03;;;;;;;6.00;3.33;;;25.10;99.90;;;;;;5063952;28;20209;-76
2022/07/16 05:59:30;;;;;;;3.85;3.55;;;25.20;99.90;;;;;;5064737;28;20197;-77
2022/07/16 06:01:57;;;;;;;3.05;2.85;;;25.20;99.90;;;;;;5060564;28;20209;-76
2022/07/16 06:04:24;;;;;;;5.20;3.72;;;25.30;99.90;;;;;;5062660;28;20210;-76
2022/07/16 06:06:51;;;;;;;4.10;3.70;;;25.30;99.90;;;;;;5064880;28;20194;-76
2022/07/16 06:09:18;;;;;;;4.30;3.90;;;25.20;99.90;;;;;;5064817;28;20217;-75
2022/07/16 06:11:46;;;;;;;3.85;3.55;;;25.30;99.90;;;;;;5063760;28;20583;-76
2022/07/16 06:14:14;;;;;;;4.10;3.58;;;25.40;99.90;;;;;;5061732;28;20226;-76
2022/07/16 06:16:42;;;;;;;4.03;3.45;;;25.40;99.90;;;;;;5062875;28;20260;-76
2022/07/16 06:19:10;;;;;;;3.97;3.67;;;25.50;99.90;;;;;;5058846;28;20222;-76
2022/07/16 06:21:37;;;;;;;4.70;3.90;;;25.50;99.90;;;;;;5060546;28;20198;-76
2022/07/16 06:24:04;;;;;;;4.10;3.78;;;25.60;99.90;;;;;;5064503;28;20218;-76
2022/07/16 06:26:31;;;;;;;4.43;4.05;;;25.60;99.90;;;;;;5064677;28;20210;-75
2022/07/16 06:28:58;;;;;;;3.90;3.60;;;25.60;99.90;;;;;;5056111;28;20221;-76
2022/07/16 06:31:27;;;;;;;4.13;3.70;;;25.70;99.90;;;;;;5060508;28;20206;-77
2022/07/16 06:33:54;;;;;;;5.40;3.75;;;25.80;99.90;;;;;;5042658;28;20219;-76
2022/07/16 06:36:21;;;;;;;4.32;4.00;;;26.00;99.90;;;;;;5041383;28;20222;-77
2022/07/16 06:38:48;;;;;;;5.50;4.20;;;26.00;99.90;;;;;;5044191;28;20254;-76
2022/07/16 06:41:17;;;;;;;3.83;3.50;;;26.00;99.90;;;;;;5047596;28;20211;-76
2022/07/16 06:43:44;;;;;;;4.32;3.90;;;26.10;99.90;;;;;;5051163;28;20274;-76
2022/07/16 06:46:11;;;;;;;3.85;3.50;;;26.10;99.90;;;;;;5047913;28;20688;-76
2022/07/16 06:48:40;;;;;;;4.07;3.78;;;26.20;99.90;;;;;;5041415;28;20226;-76
2022/07/16 06:51:07;;;;;;;3.95;3.53;;;26.20;99.90;;;;;;5043211;28;20206;-77
2022/07/16 06:53:38;;;;;;;4.00;3.70;;;26.30;99.90;;;;;;5048707;28;20819;-76
2022/07/16 06:56:06;;;;;;;3.92;3.58;;;26.40;99.90;;;;;;5050435;28;20875;-75
2022/07/16 06:58:34;;;;;;;4.00;3.70;;;26.40;99.90;;;;;;5043126;28;20243;-76
2022/07/16 07:01:01;;;;;;;5.43;3.85;;;26.50;99.90;;;;;;5047212;28;20203;-75
2022/07/16 07:03:28;;;;;;;3.97;3.67;;;26.60;99.90;;;;;;5049490;28;20223;-76
2022/07/16 07:05:57;;;;;;;4.65;4.03;;;26.70;99.90;;;;;;5047290;28;20198;-75
2022/07/16 07:08:24;;;;;;;4.00;3.70;;;26.70;99.90;;;;;;5050207;28;21138;-75
2022/07/16 07:10:51;;;;;;;4.22;3.58;;;26.60;99.90;;;;;;5048877;28;20195;-76
2022/07/16 07:13:18;;;;;;;4.05;3.65;;;26.70;99.90;;;;;;5043107;28;20234;-74
2022/07/16 07:15:45;;;;;;;4.22;3.35;;;26.90;99.90;;;;;;5046642;28;20200;-76
2022/07/16 07:18:12;;;;;;;3.92;3.60;;;27.00;99.90;;;;;;5044058;28;20219;-76
2022/07/16 07:20:39;;;;;;;5.75;3.80;;;27.20;99.90;;;;;;5044720;28;20843;-76
2022/07/16 07:23:08;;;;;;;4.07;3.60;;;27.30;99.90;;;;;;5043535;28;20218;-76
2022/07/16 07:25:36;;;;;;;4.00;3.63;;;27.30;99.90;;;;;;5039496;28;20195;-74
2022/07/16 07:28:03;;;;;;;3.97;3.58;;;27.40;99.90;;;;;;5037802;28;20224;-76
2022/07/16 07:30:30;;;;;;;3.95;3.65;;;27.40;99.90;;;;;;5045301;28;20199;-76
2022/07/16 07:32:59;;;;;;;3.97;3.58;;;27.50;99.90;;;;;;5054858;28;20214;-76
2022/07/16 07:35:26;;;;;;;5.45;3.70;;;27.70;99.90;;;;;;5064179;28;20198;-76
2022/07/16 07:37:53;;;;;;;5.22;4.28;;;27.80;99.90;;;;;;5059188;28;20229;-76
2022/07/16 07:40:21;;;;;;;5.75;3.80;;;27.80;99.90;;;;;;5046296;28;20191;-75
2022/07/16 07:42:49;;;;;;;4.28;3.63;;;27.80;99.90;;;;;;5055241;28;20581;-75
2022/07/16 07:45:16;;;;;;;3.60;3.30;;;27.90;99.90;;;;;;5061667;28;20550;-76
2022/07/16 07:47:43;;;;;;;4.32;4.03;;;28.10;99.90;;;;;;5056541;28;20210;-75
2022/07/16 07:50:10;;;;;;;5.43;3.53;;;28.20;99.90;;;;;;5044644;28;20741;-75
2022/07/16 07:52:38;;;;;;;3.90;3.50;;;28.20;99.90;;;;;;5046575;28;20230;-75
2022/07/16 07:55:06;;;;;;;3.83;3.47;;;28.40;99.90;;;;;;5039700;28;20226;-76
2022/07/16 07:57:34;;;;;;;3.80;3.50;;;28.70;99.90;;;;;;5044719;28;20219;-74
2022/07/16 08:00:02;;;;;;;4.30;3.50;;;28.70;99.90;;;;;;5045966;28;20596;-75
2022/07/16 08:02:29;;;;;;;4.28;3.70;;;28.70;99.90;;;;;;5041543;28;20223;-76
2022/07/16 08:04:56;;;;;;;3.80;3.50;;;28.70;99.90;;;;;;5041954;28;20222;-76
2022/07/16 08:07:23;;;;;;;3.95;3.55;;;28.80;99.90;;;;;;5038570;28;20711;-76
2022/07/16 08:09:50;;;;;;;3.97;3.67;;;28.90;99.90;;;;;;5041359;28;20714;-75
2022/07/16 08:12:17;;;;;;;4.00;3.50;;;29.10;99.90;;;;;;5048131;28;20223;-73
2022/07/16 08:14:45;;;;;;;4.90;3.90;;;29.00;99.90;;;;;;5060794;28;20233;-75
2022/07/16 08:17:12;;;;;;;4.30;3.55;;;29.00;99.90;;;;;;5066024;28;20218;-76
2022/07/16 08:19:40;;;;;;;4.75;3.35;;;29.10;99.90;;;;;;5058977;28;20194;-75
2022/07/16 08:22:07;;;;;;;3.78;3.47;;;29.30;99.90;;;;;;5059479;28;20218;-75
2022/07/16 08:27:18;;;;;;;3.80;3.50;;;29.40;99.90;;;;;;5043069;28;20285;-76
2022/07/16 08:29:47;;;;;;;4.18;3.78;;;29.60;99.90;;;;;;5046727;28;20221;-76
2022/07/16 08:32:14;;;;;;;3.70;3.40;;;29.80;99.90;;;;;;5057108;28;20221;-74
2022/07/16 08:34:41;;;;;;;4.45;4.05;;;29.80;99.90;;;;;;5050212;28;20222;-74
2022/07/16 08:37:10;;;;;;;4.32;3.88;;;29.80;99.90;;;;;;5050980;28;20242;-73
2022/07/16 08:39:42;;;;;;;3.60;3.30;;;29.60;99.90;;;;;;5044408;28;20203;-75
2022/07/16 08:42:11;;;;;;;3.95;3.60;;;29.50;99.90;;;;;;5042856;28;20770;-73
2022/07/16 08:44:40;;;;;;;4.35;3.80;;;29.50;99.90;;;;;;5047572;28;20638;-74
2022/07/16 08:47:11;;;;;;;4.07;3.72;;;29.60;99.90;;;;;;5041952;28;20710;-73
2022/07/16 08:49:39;;;;;;;3.78;3.47;;;29.70;99.90;;;;;;5038883;28;20597;-75
2022/07/16 08:52:08;;;;;;;3.70;3.40;;;29.90;99.90;;;;;;5048020;28;20223;-73
2022/07/16 08:54:37;;;;;;;3.78;3.50;;;30.00;99.90;;;;;;5045766;28;20226;-73
2022/07/16 08:57:05;;;;;;;4.97;4.00;;;30.10;99.90;;;;;;5041957;28;20214;-73
2022/07/16 08:59:32;;;;;;;5.68;3.80;;;30.10;99.90;;;;;;5047350;28;20202;-73
2022/07/16 09:01:59;;;;;;;5.57;3.85;;;30.10;99.90;;;;;;5041380;28;20205;-74
2022/07/16 09:04:28;;;;;;;3.97;3.60;;;30.20;99.90;;;;;;5041530;28;20697;-74
2022/07/16 09:06:55;;;;;;;3.33;3.13;;;30.30;99.90;;;;;;5043761;28;20203;-73
2022/07/16 09:09:22;;;;;;;3.90;3.60;;;30.60;99.90;;;;;;5038224;28;20229;-73
2022/07/16 09:11:49;;;;;;;3.55;3.13;;;30.80;99.90;;;;;;5041760;28;20206;-73
2022/07/16 09:14:19;;;;;;;3.47;3.15;;;30.90;99.90;;;;;;5042956;28;20214;-73
2022/07/16 09:16:49;;;;;;;4.13;3.33;;;30.80;99.90;;;;;;5042783;28;20191;-73
2022/07/16 09:19:19;;;;;;;3.47;3.17;;;31.00;99.90;;;;;;5037423;28;20633;-74
2022/07/16 09:22:02;;;;;;;4.00;3.20;;;31.00;99.90;;;;;;5036847;28;20195;-73
2022/07/16 09:24:40;;;;;;;5.07;3.70;;;31.00;99.90;;;;;;5044911;28;20633;-74
2022/07/16 09:27:09;;;;;;;3.60;3.30;;;30.90;99.90;;;;;;5046174;28;20664;-73
2022/07/16 09:29:44;;;;;;;3.50;3.20;;;31.00;99.90;;;;;;5060656;28;20203;-73
2022/07/16 09:32:11;;;;;;;3.30;3.00;;;31.10;99.90;;;;;;5061629;28;20315;-74
2022/07/16 09:34:38;;;;;;;2.80;2.60;;;31.30;99.90;;;;;;5058119;28;20222;-74
2022/07/16 09:37:08;;;;;;;3.58;2.95;;;31.30;99.90;;;;;;5063094;28;20225;-73
2022/07/16 09:39:36;;;;;;;4.00;3.70;;;31.40;99.90;;;;;;5061922;28;20660;-74
2022/07/16 09:42:04;;;;;;;3.35;3.15;;;31.40;99.90;;;;;;5060674;28;20245;-73
2022/07/16 09:44:33;;;;;;;3.80;3.17;;;31.50;99.90;;;;;;5041211;28;20207;-74
2022/07/16 09:47:04;;;;;;;3.70;3.40;;;31.50;99.90;;;;;;5035524;28;20684;-74
2022/07/16 09:49:33;;;;;;;4.05;3.40;;;31.50;99.90;;;;;;5042562;28;20567;-74
2022/07/16 09:52:00;;;;;;;3.95;3.60;;;31.50;99.90;;;;;;5043449;28;20210;-73
2022/07/16 09:54:31;;;;;;;4.10;3.80;;;31.40;99.90;;;;;;5042607;28;20223;-74
2022/07/16 09:57:09;;;;;;;3.65;3.35;;;31.50;99.90;;;;;;5028690;28;20195;-76
2022/07/16 09:59:37;;;;;;;3.42;3.10;;;31.30;99.90;;;;;;5039081;28;20191;-72
2022/07/16 10:02:05;;;;;;;3.67;3.38;;;31.30;99.90;;;;;;5046684;28;20223;-75
2022/07/16 10:04:32;;;;;;;4.10;3.67;;;31.30;99.90;;;;;;5045793;28;20218;-74
2022/07/16 10:07:00;;;;;;;3.63;3.33;;;31.30;99.90;;;;;;5040172;28;20272;-76
2022/07/16 10:09:34;;;;;;;4.05;3.65;;;31.30;99.90;;;;;;5200531;22;20205;-78
2022/07/16 10:12:06;;;;;;;3.75;3.45;;;31.40;99.90;;;;;;5070333;28;20194;-79
2022/07/16 10:14:35;;;;;;;4.05;3.70;;;31.40;99.90;;;;;;5051151;28;20210;-78
2022/07/16 10:17:12;;;;;;;4.00;3.70;;;31.30;99.90;;;;;;5056267;28;20239;-78
2022/07/16 10:19:40;;;;;;;4.25;3.85;;;31.30;99.90;;;;;;5047674;28;20214;-78
2022/07/16 10:22:16;;;;;;;4.00;3.55;;;31.50;99.90;;;;;;5049960;28;20696;-78
2022/07/16 10:24:48;;;;;;;4.18;3.78;;;31.70;99.90;;;;;;5051912;28;20191;-77
2022/07/16 10:27:26;;;;;;;4.47;4.07;;;32.00;99.90;;;;;;5054831;28;20629;-78
2022/07/16 10:30:09;;;;;;;4.75;3.58;;;32.10;99.90;;;;;;5049031;28;20222;-77
2022/07/16 10:33:13;;;;;;;4.25;3.95;;;32.40;99.90;;;;;;5039264;28;20277;-77
2022/07/16 10:35:44;;;;;;;4.72;3.80;;;32.60;99.90;;;;;;5042237;28;20244;-79
2022/07/16 10:38:13;;;;;;;4.00;3.70;;;32.50;99.90;;;;;;5045440;28;20410;-76
2022/07/16 10:40:44;;;;;;;4.20;3.90;;;32.50;99.90;;;;;;5056252;28;20231;-76
2022/07/16 10:43:17;;;;;;;5.63;4.25;;;32.40;99.90;;;;;;5048201;28;20222;-80
2022/07/16 10:45:54;;;;;;;4.25;3.90;;;32.50;99.90;;;;;;5055446;28;20191;-78
2022/07/16 10:48:22;;;;;;;4.60;4.20;;;32.50;99.90;;;;;;5054285;28;20218;-78
2022/07/16 10:51:20;;;;;;;4.85;4.13;;;32.40;99.90;;;;;;5052167;28;20219;-78
2022/07/16 10:54:29;;;;;;;4.70;4.30;;;32.60;99.90;;;;;;4988946;28;20229;-77
2022/07/16 10:57:00;;;;;;;4.85;4.30;;;32.90;99.90;;;;;;5044483;28;20199;-76
2022/07/16 10:59:29;;;;;;;4.68;4.25;;;33.10;99.90;;;;;;5050035;28;20230;-79
2022/07/16 11:02:00;;;;;;;4.57;4.18;;;33.30;99.90;;;;;;5050680;28;20769;-79
2022/07/16 11:04:31;;;;;;;4.18;3.88;;;33.30;99.90;;;;;;5053779;28;20277;-76
2022/07/16 11:13:42;;;;;;;4.35;3.95;;;33.30;99.90;;;;;;5053190;28;20313;-76
2022/07/16 11:16:11;;;;;;;4.07;3.70;;;33.30;99.90;;;;;;5053118;28;20199;-76
2022/07/16 11:18:38;;;;;;;4.20;3.90;;;33.30;99.90;;;;;;5053231;28;20764;-76
2022/07/16 11:21:06;;;;;;;4.00;3.70;;;33.50;99.90;;;;;;5052077;28;20269;-77
2022/07/16 11:23:47;;;;;;;4.85;3.58;;;33.50;99.90;;;;;;5050940;28;20600;-77
2022/07/16 11:26:15;;;;;;;7.95;4.32;;;33.60;99.90;;;;;;5049555;28;20198;-77
2022/07/16 11:28:51;;;;;;;5.57;4.15;;;33.70;99.90;;;;;;5046022;28;20309;-76
2022/07/16 11:31:25;;;;;;;4.60;4.07;;;33.80;99.90;;;;;;5050756;28;20305;-77
2022/07/16 11:33:54;;;;;;;3.90;3.60;;;33.80;99.90;;;;;;5047606;28;20219;-76
2022/07/16 11:36:21;;;;;;;4.15;3.83;;;33.90;99.90;;;;;;5042252;28;20199;-77
2022/07/16 11:38:49;;;;;;;4.30;3.95;;;33.70;99.90;;;;;;5044666;28;20704;-75
2022/07/16 11:41:17;;;;;;;4.38;3.97;;;33.70;99.90;;;;;;5050900;28;20219;-77
2022/07/16 11:43:44;;;;;;;4.00;3.47;;;33.70;99.90;;;;;;5044766;28;20226;-75
2022/07/16 11:46:23;;;;;;;4.10;3.78;;;33.70;99.90;;;;;;5047035;28;20199;-76
2022/07/16 11:48:52;;;;;;;4.72;3.95;;;33.80;99.90;;;;;;5049515;28;20216;-78
2022/07/16 11:51:19;;;;;;;3.75;3.45;;;33.90;99.90;;;;;;5045223;28;20219;-76
2022/07/16 11:53:50;;;;;;;5.30;3.70;;;33.90;99.90;;;;;;5049248;28;20223;-76
2022/07/16 11:56:31;;;;;;;4.43;3.88;;;33.90;99.90;;;;;;5046184;28;20203;-76
2022/07/16 11:58:59;;;;;;;3.85;3.50;;;33.90;99.80;;;;;;5044722;28;20279;-78
2022/07/16 12:01:26;;;;;;;3.53;3.20;;;34.10;99.90;;;;;;5045748;28;20215;-77
2022/07/16 12:03:55;;;;;;;4.43;3.70;;;34.30;99.90;;;;;;5050084;28;20215;-77
2022/07/16 12:06:22;;;;;;;3.70;3.50;;;34.30;99.90;;;;;;5046418;28;20195;-77
2022/07/16 12:08:54;;;;;;;4.38;3.50;;;34.40;99.90;;;;;;5044716;28;20248;-75
2022/07/16 12:11:21;;;;;;;3.72;3.40;;;34.50;99.50;;;;;;5044264;28;20226;-77
2022/07/16 12:13:52;;;;;;;3.47;3.17;;;34.50;99.30;;;;;;5047156;28;20226;-77
2022/07/16 12:16:20;;;;;;;3.25;3.00;;;34.50;98.60;;;;;;5043188;28;20226;-77
2022/07/16 12:19:05;;;;;;;3.65;3.35;;;34.70;98.90;;;;;;5042938;28;20231;-78
2022/07/16 12:21:34;;;;;;;3.70;3.40;;;34.80;97.80;;;;;;5037760;28;20638;-78
2022/07/16 12:24:02;;;;;;;3.08;2.88;;;34.60;97.90;;;;;;5043451;28;20288;-77
2022/07/16 12:26:31;;;;;;;3.60;3.40;;;34.70;97.80;;;;;;5043008;28;20737;-78
2022/07/16 12:28:59;;;;;;;3.30;3.10;;;34.70;97.20;;;;;;5034749;28;20219;-78
2022/07/16 12:31:31;;;;;;;5.75;3.35;;;34.70;97.30;;;;;;5036113;28;20245;-77
2022/07/16 12:34:01;;;;;;;4.22;3.00;;;34.70;97.20;;;;;;5042098;28;20233;-77
2022/07/16 12:36:33;;;;;;;3.35;3.15;;;34.70;97.50;;;;;;5040105;28;20311;-76
2022/07/16 12:39:03;;;;;;;3.30;3.00;;;34.80;97.10;;;;;;5043209;28;20641;-76
2022/07/16 12:41:36;;;;;;;3.88;2.95;;;34.90;96.70;;;;;;5046769;28;20225;-79
2022/07/16 12:44:05;;;;;;;3.72;3.40;;;34.90;96.10;;;;;;5040518;28;20219;-79
2022/07/16 12:46:33;;;;;;;3.60;3.30;;;34.90;95.80;;;;;;5047798;28;20284;-80
2022/07/16 12:49:03;;;;;;;3.88;3.03;;;34.90;94.50;;;;;;5041950;28;20287;-78
2022/07/16 12:51:34;;;;;;;3.20;2.95;;;34.70;94.50;;;;;;5045915;28;20253;-76
2022/07/16 12:54:02;;;;;;;3.60;3.30;;;34.70;94.20;;;;;;5048070;28;20230;-78
2022/07/16 12:59:15;;;;;;;4.38;2.60;;;34.60;94.20;;;;;;5047716;28;21235;-78
2022/07/16 13:01:43;;;;;;;3.65;3.35;;;34.70;94.60;;;;;;5044329;28;20284;-81
2022/07/16 13:04:12;;;;;;;3.30;3.10;;;34.70;93.60;;;;;;5045662;28;20188;-80
2022/07/16 13:09:57;;;;;;;5.28;3.22;;;35.10;94.20;;;;;;5002933;28;20740;-80
2022/07/16 13:12:24;;;;;;;3.40;3.10;;;35.30;93.70;;;;;;5041287;28;20233;-82
2022/07/16 13:14:51;;;;;;;3.40;3.10;;;35.10;94.00;;;;;;5040087;28;20593;-81
2022/07/16 13:17:18;;;;;;;3.38;3.08;;;35.30;94.30;;;;;;5036814;28;20225;-81
2022/07/16 13:19:47;;;;;;;3.35;3.15;;;35.50;93.30;;;;;;5039042;28;20222;-79
2022/07/16 13:22:14;;;;;;;3.33;2.90;;;35.40;93.00;;;;;;5039459;28;20215;-81